Time;durP1;ratioP1;P1;durP2;ratioP2;P2;SDS_P1;SDS_P2;PMS_P1;PMS_P2;Temp;Humidity;BMP_temperature;BMP_pressure;BME280_temperature;BME280_humidity;BME280_pressure;Samples;Min_cycle;Max_cycle;Signal;HPM_P1;HPM_P2
2023/03/24 00:01:19;;;;;;;10.13;3.95;;;12.60;99.90;;;;;;4968884;28;36066;-80
2023/03/24 00:03:47;;;;;;;9.27;4.03;;;12.60;99.90;;;;;;4964493;28;37383;-80
2023/03/24 00:06:14;;;;;;;11.73;4.32;;;12.60;99.90;;;;;;4961840;28;38334;-79
2023/03/24 00:08:42;;;;;;;10.43;4.15;;;12.70;99.90;;;;;;4963878;28;38781;-79
2023/03/24 00:11:10;;;;;;;10.13;4.10;;;12.70;99.90;;;;;;4968744;28;37321;-79
2023/03/24 00:13:37;;;;;;;7.93;3.83;;;12.80;99.90;;;;;;4975743;28;37949;-80
2023/03/24 00:16:12;;;;;;;7.30;3.13;;;12.80;99.90;;;;;;4961181;28;37494;-79
2023/03/24 00:18:38;;;;;;;7.72;3.53;;;12.90;99.90;;;;;;4965641;28;38380;-80
2023/03/24 00:21:06;;;;;;;8.10;3.25;;;12.90;99.90;;;;;;4958055;28;36680;-79
2023/03/24 00:23:33;;;;;;;8.18;2.95;;;12.90;99.90;;;;;;4962966;28;39547;-80
2023/03/24 00:26:03;;;;;;;4.78;3.17;;;12.90;99.90;;;;;;4979905;28;38447;-79
2023/03/24 00:28:32;;;;;;;5.30;3.45;;;12.90;99.90;;;;;;4977263;28;48445;-81
2023/03/24 00:31:00;;;;;;;6.60;3.17;;;13.00;99.90;;;;;;4962408;28;36340;-81
2023/03/24 00:33:31;;;;;;;6.80;3.13;;;13.10;99.90;;;;;;4942545;28;39221;-79
2023/03/24 00:35:59;;;;;;;7.25;3.17;;;13.00;99.90;;;;;;4955303;28;36737;-80
2023/03/24 00:38:25;;;;;;;7.93;3.20;;;13.10;99.90;;;;;;4974716;28;39350;-80
2023/03/24 00:40:52;;;;;;;4.82;2.67;;;13.00;99.90;;;;;;4949565;28;37670;-79
2023/03/24 00:43:20;;;;;;;6.13;3.15;;;13.00;99.90;;;;;;4963367;28;39085;-80
2023/03/24 00:45:47;;;;;;;10.07;3.60;;;13.00;99.90;;;;;;4970676;28;38849;-79
2023/03/24 00:48:18;;;;;;;7.00;3.72;;;13.00;99.90;;;;;;4996377;28;39173;-79
2023/03/24 00:50:50;;;;;;;7.95;3.47;;;13.00;99.90;;;;;;4974011;28;37096;-80
2023/03/24 00:53:17;;;;;;;6.85;2.88;;;13.00;99.90;;;;;;4969139;28;37908;-80
2023/03/24 00:55:46;;;;;;;9.40;3.13;;;13.00;99.90;;;;;;4974497;28;37291;-80
2023/03/24 00:58:18;;;;;;;7.43;3.00;;;12.90;99.90;;;;;;4989367;28;38406;-80
2023/03/24 01:00:46;;;;;;;7.63;3.90;;;13.00;99.90;;;;;;4971630;28;36973;-79
2023/03/24 01:03:13;;;;;;;6.93;3.42;;;12.90;99.90;;;;;;4994744;28;38914;-80
2023/03/24 01:05:40;;;;;;;5.15;2.88;;;13.00;99.90;;;;;;4976135;28;37472;-79
2023/03/24 01:08:09;;;;;;;5.63;3.10;;;13.00;99.90;;;;;;4990201;28;36837;-81
2023/03/24 01:10:49;;;;;;;4.00;2.55;;;12.90;99.90;;;;;;4986901;28;36318;-80
2023/03/24 01:13:28;;;;;;;9.73;3.70;;;13.00;99.90;;;;;;4982819;28;37766;-80
2023/03/24 01:15:55;;;;;;;6.68;3.42;;;13.00;99.90;;;;;;4978921;28;37757;-80
2023/03/24 01:18:26;;;;;;;8.25;3.22;;;13.00;99.90;;;;;;4978148;28;36814;-80
2023/03/24 01:20:53;;;;;;;7.32;3.63;;;12.90;99.90;;;;;;4970376;28;36393;-80
2023/03/24 01:23:22;;;;;;;6.88;3.83;;;12.90;99.90;;;;;;4971579;28;38191;-80
2023/03/24 01:25:50;;;;;;;8.68;3.72;;;12.90;99.90;;;;;;4972409;28;39919;-81
2023/03/24 01:28:26;;;;;;;5.95;3.40;;;12.90;99.90;;;;;;4971575;28;39774;-80
2023/03/24 01:30:55;;;;;;;6.15;3.90;;;12.90;99.90;;;;;;4976729;28;36590;-80
2023/03/24 01:33:21;;;;;;;10.68;4.22;;;12.90;99.90;;;;;;4979192;28;38868;-80
2023/03/24 01:35:49;;;;;;;11.93;4.55;;;12.90;99.90;;;;;;4973706;28;37627;-80
2023/03/24 01:38:16;;;;;;;10.00;4.05;;;12.80;99.90;;;;;;4973145;28;38331;-81
2023/03/24 01:40:45;;;;;;;7.72;3.60;;;12.70;99.90;;;;;;4974288;28;36074;-81
2023/03/24 01:43:37;;;;;;;8.63;3.92;;;12.60;99.90;;;;;;4974193;28;39269;-81
2023/03/24 01:46:18;;;;;;;11.60;3.40;;;12.50;99.90;;;;;;4960754;28;37820;-81
2023/03/24 01:48:49;;;;;;;7.03;2.25;;;12.40;99.90;;;;;;4980902;28;37403;-81
2023/03/24 01:51:24;;;;;;;5.40;1.92;;;12.30;99.90;;;;;;4978443;28;37187;-81
2023/03/24 01:54:04;;;;;;;9.20;1.92;;;12.10;99.90;;;;;;4964865;28;38998;-81
2023/03/24 01:56:36;;;;;;;10.32;2.45;;;12.10;99.90;;;;;;4974738;28;50200;-80
2023/03/24 01:59:09;;;;;;;15.35;2.92;;;11.90;99.90;;;;;;4972222;28;37606;-80
2023/03/24 02:01:41;;;;;;;9.07;2.08;;;11.90;99.90;;;;;;5332637;23;35994;-78
2023/03/24 02:04:08;;;;;;;9.85;2.17;;;11.70;99.90;;;;;;4976652;28;37857;-79
2023/03/24 02:06:39;;;;;;;13.93;2.20;;;11.60;99.90;;;;;;4970876;28;38359;-79
2023/03/24 02:09:07;;;;;;;15.93;2.27;;;11.60;99.90;;;;;;4975885;28;37776;-78
2023/03/24 02:11:35;;;;;;;13.02;2.65;;;11.50;99.90;;;;;;4968960;28;37238;-79
2023/03/24 02:14:02;;;;;;;18.30;2.75;;;11.50;99.90;;;;;;4968990;28;38422;-79
2023/03/24 02:16:40;;;;;;;14.40;2.50;;;11.40;99.90;;;;;;4987085;28;48564;-80
2023/03/24 02:19:11;;;;;;;16.02;2.45;;;11.30;99.90;;;;;;4969740;28;37490;-78
2023/03/24 02:21:40;;;;;;;15.07;2.38;;;11.30;99.90;;;;;;4992920;28;37019;-79
2023/03/24 02:24:45;;;;;;;20.75;3.05;;;11.30;99.90;;;;;;4983708;28;39083;-78
2023/03/24 02:27:17;;;;;;;15.10;2.92;;;11.10;99.90;;;;;;4983639;28;40255;-79
2023/03/24 02:30:11;;;;;;;14.80;2.78;;;11.10;99.90;;;;;;4969061;28;37286;-78
2023/03/24 02:33:13;;;;;;;21.98;2.72;;;11.10;99.90;;;;;;4970654;28;48172;-78
2023/03/24 02:36:01;;;;;;;14.18;2.30;;;11.00;99.90;;;;;;4951897;28;46669;-78
2023/03/24 02:39:04;;;;;;;21.10;3.17;;;10.90;99.90;;;;;;4968230;28;47450;-78
2023/03/24 02:42:04;;;;;;;20.43;2.70;;;10.80;99.90;;;;;;4970024;28;47184;-79
2023/03/24 02:44:55;;;;;;;13.87;2.80;;;10.70;99.90;;;;;;4969046;28;47104;-76
2023/03/24 02:47:29;;;;;;;21.73;3.50;;;10.70;99.90;;;;;;4966703;28;39013;-76
2023/03/24 02:50:19;;;;;;;25.50;3.20;;;10.70;99.90;;;;;;4965941;28;37214;-78
2023/03/24 02:53:08;;;;;;;22.60;3.43;;;10.60;99.90;;;;;;4964478;28;47091;-77
2023/03/24 02:56:06;;;;;;;17.07;3.37;;;10.60;99.90;;;;;;4967385;28;48331;-77
2023/03/24 02:58:44;;;;;;;19.57;3.47;;;10.50;99.90;;;;;;4979373;28;47335;-77
2023/03/24 03:01:30;;;;;;;20.35;3.30;;;10.40;99.90;;;;;;4965061;28;37449;-77
2023/03/24 03:04:07;;;;;;;17.13;4.32;;;10.30;99.90;;;;;;4961532;28;37176;-77
2023/03/24 03:06:39;;;;;;;23.80;4.33;;;10.20;99.90;;;;;;4965724;28;47333;-76
2023/03/24 03:09:10;;;;;;;17.63;3.17;;;10.20;99.90;;;;;;4963096;28;37716;-77
2023/03/24 03:11:40;;;;;;;22.83;3.63;;;10.20;99.90;;;;;;4965011;28;38663;-77
2023/03/24 03:14:16;;;;;;;19.50;3.73;;;10.20;99.90;;;;;;4964631;28;36968;-77
2023/03/24 03:16:52;;;;;;;19.10;3.85;;;10.20;99.90;;;;;;4979524;28;36619;-77
2023/03/24 03:19:27;;;;;;;24.27;4.67;;;10.20;99.90;;;;;;4985950;28;38951;-77
2023/03/24 03:21:55;;;;;;;22.30;3.43;;;10.30;99.90;;;;;;4982863;28;38817;-77
2023/03/24 03:24:29;;;;;;;20.90;3.47;;;10.30;99.90;;;;;;4963626;28;37074;-77
2023/03/24 03:27:17;;;;;;;29.53;3.83;;;10.30;99.90;;;;;;4966973;28;36426;-76
2023/03/24 03:29:49;;;;;;;30.88;4.10;;;10.30;99.90;;;;;;4950917;28;47490;-78
2023/03/24 03:32:27;;;;;;;20.33;3.63;;;10.20;99.90;;;;;;4955218;28;38612;-77
2023/03/24 03:35:21;;;;;;;23.57;3.40;;;10.20;99.90;;;;;;4967977;28;37499;-77
2023/03/24 03:38:08;;;;;;;29.30;4.55;;;10.10;99.90;;;;;;4967413;28;48589;-78
2023/03/24 03:40:40;;;;;;;27.53;3.73;;;10.10;99.90;;;;;;4966661;28;49296;-77
2023/03/24 03:43:06;;;;;;;21.67;3.50;;;10.10;99.90;;;;;;4970475;28;38263;-78
2023/03/24 03:45:35;;;;;;;28.77;5.03;;;10.10;99.90;;;;;;4968375;28;37140;-77
2023/03/24 03:48:01;;;;;;;26.70;4.07;;;10.00;99.90;;;;;;4970186;28;37637;-77
2023/03/24 03:50:28;;;;;;;26.50;3.43;;;10.00;99.90;;;;;;4969380;28;38802;-77
2023/03/24 03:52:54;;;;;;;29.03;4.03;;;10.00;99.90;;;;;;4966242;28;38040;-77
2023/03/24 03:55:21;;;;;;;30.83;4.63;;;10.00;99.90;;;;;;4962947;28;37063;-77
2023/03/24 03:57:47;;;;;;;27.17;4.30;;;9.90;99.90;;;;;;4965013;28;36189;-78
2023/03/24 04:00:18;;;;;;;30.50;4.07;;;9.90;99.90;;;;;;4957777;28;37380;-77
2023/03/24 04:03:05;;;;;;;29.97;4.37;;;9.90;99.90;;;;;;4954568;28;46842;-77
2023/03/24 04:06:05;;;;;;;34.03;4.87;;;9.90;99.90;;;;;;4961689;28;49151;-77
2023/03/24 04:08:50;;;;;;;40.07;4.97;;;9.90;99.90;;;;;;4960546;28;47792;-77
2023/03/24 04:11:34;;;;;;;28.23;4.33;;;9.90;99.90;;;;;;4961182;28;39169;-76
2023/03/24 04:14:31;;;;;;;38.20;5.80;;;9.90;99.90;;;;;;4965110;28;37331;-77
2023/03/24 04:17:03;;;;;;;31.50;4.63;;;9.90;99.90;;;;;;4959815;28;47235;-76
2023/03/24 04:19:31;;;;;;;39.85;5.28;;;9.80;99.90;;;;;;4965577;28;48320;-76
2023/03/24 04:22:22;;;;;;;45.07;6.17;;;9.90;99.90;;;;;;4964498;28;37248;-76
2023/03/24 04:24:58;;;;;;;38.20;4.93;;;9.80;99.90;;;;;;4964221;28;47552;-76
2023/03/24 04:27:55;;;;;;;31.60;4.00;;;9.80;99.90;;;;;;4962159;28;38905;-76
2023/03/24 04:30:49;;;;;;;33.53;5.43;;;9.80;99.90;;;;;;4960639;28;37252;-77
2023/03/24 04:33:27;;;;;;;36.60;4.80;;;9.80;99.90;;;;;;4964127;28;37673;-77
2023/03/24 04:36:17;;;;;;;36.63;4.70;;;9.80;99.90;;;;;;4968097;28;38411;-76
2023/03/24 04:38:52;;;;;;;33.33;5.03;;;9.80;99.90;;;;;;4972124;28;48886;-77
2023/03/24 04:41:24;;;;;;;38.97;6.57;;;9.80;99.90;;;;;;4966868;28;38052;-76
2023/03/24 04:43:53;;;;;;;37.40;6.03;;;9.80;99.90;;;;;;4970946;28;38551;-76
2023/03/24 04:46:21;;;;;;;41.87;6.27;;;9.80;99.90;;;;;;4966172;28;37698;-76
2023/03/24 04:48:47;;;;;;;36.20;4.90;;;9.80;99.90;;;;;;4965461;28;36416;-76
2023/03/24 04:51:15;;;;;;;35.70;5.00;;;9.80;99.90;;;;;;4965228;28;36422;-76
2023/03/24 04:53:42;;;;;;;41.90;5.47;;;9.80;99.90;;;;;;4965851;28;38834;-76
2023/03/24 04:56:16;;;;;;;41.50;5.13;;;9.80;99.90;;;;;;4963651;28;37592;-76
2023/03/24 04:58:43;;;;;;;46.40;6.40;;;9.80;99.90;;;;;;4965179;28;37171;-76
2023/03/24 05:01:09;;;;;;;34.53;7.30;;;9.80;99.90;;;;;;4965664;28;36296;-75
2023/03/24 05:03:36;;;;;;;34.93;5.30;;;9.80;99.90;;;;;;4968739;28;38054;-76
2023/03/24 05:06:04;;;;;;;23.83;4.67;;;9.80;99.90;;;;;;4986258;28;38519;-76
2023/03/24 05:08:31;;;;;;;32.30;5.10;;;9.80;99.90;;;;;;4973701;28;37273;-76
2023/03/24 05:10:57;;;;;;;29.13;5.33;;;9.80;99.90;;;;;;4990198;28;37142;-75
2023/03/24 05:13:23;;;;;;;35.40;5.33;;;9.80;99.90;;;;;;4966424;28;38823;-76
2023/03/24 05:15:52;;;;;;;26.73;4.33;;;9.80;99.90;;;;;;4964623;28;39281;-77
2023/03/24 05:18:18;;;;;;;29.20;5.03;;;9.90;99.90;;;;;;4970777;28;37234;-76
2023/03/24 05:20:45;;;;;;;33.37;5.53;;;9.90;99.90;;;;;;4970275;28;36618;-76
2023/03/24 05:23:11;;;;;;;32.60;4.47;;;9.90;99.90;;;;;;4970544;28;37812;-77
2023/03/24 05:25:37;;;;;;;20.83;4.40;;;9.90;99.90;;;;;;4989552;28;38233;-76
2023/03/24 05:28:03;;;;;;;35.77;5.00;;;10.00;99.90;;;;;;4971811;28;36960;-76
2023/03/24 05:30:30;;;;;;;34.90;4.63;;;10.10;99.90;;;;;;4975571;28;36239;-77
2023/03/24 05:32:56;;;;;;;26.33;3.40;;;10.10;99.90;;;;;;4972691;28;37635;-76
2023/03/24 05:35:23;;;;;;;30.80;4.33;;;10.20;99.90;;;;;;4972180;28;37278;-77
2023/03/24 05:37:50;;;;;;;36.17;4.67;;;10.20;99.90;;;;;;4967325;28;36917;-77
2023/03/24 05:40:16;;;;;;;23.97;3.83;;;10.30;99.90;;;;;;4974964;28;37647;-77
2023/03/24 05:42:42;;;;;;;28.63;3.57;;;10.30;99.90;;;;;;4970221;28;37909;-77
2023/03/24 05:45:10;;;;;;;38.70;5.30;;;10.30;99.90;;;;;;4970484;28;37219;-76
2023/03/24 05:47:37;;;;;;;24.03;3.93;;;10.30;99.90;;;;;;4987531;28;40119;-76
2023/03/24 05:50:04;;;;;;;22.40;3.97;;;10.30;99.90;;;;;;4968778;28;37462;-75
2023/03/24 05:52:30;;;;;;;22.30;3.77;;;10.30;99.90;;;;;;4969254;28;47323;-75
2023/03/24 05:54:57;;;;;;;26.50;4.40;;;10.30;99.90;;;;;;4982504;28;37948;-75
2023/03/24 05:57:23;;;;;;;26.90;4.00;;;10.30;99.90;;;;;;4965856;28;39445;-77
2023/03/24 05:59:50;;;;;;;26.13;4.60;;;10.30;99.90;;;;;;4982020;28;37106;-76
2023/03/24 06:02:17;;;;;;;20.00;3.80;;;10.30;99.90;;;;;;4962534;28;37899;-76
2023/03/24 06:04:47;;;;;;;25.27;3.50;;;10.30;99.90;;;;;;4979537;28;39119;-76
2023/03/24 06:07:14;;;;;;;23.03;4.37;;;10.20;99.90;;;;;;4963411;28;37106;-75
2023/03/24 06:09:45;;;;;;;34.87;4.10;;;10.20;99.90;;;;;;4960444;28;36356;-76
2023/03/24 06:12:12;;;;;;;23.50;3.93;;;10.20;99.90;;;;;;4975900;28;38607;-76
2023/03/24 06:14:39;;;;;;;21.00;3.77;;;10.20;99.90;;;;;;4952563;28;37315;-77
2023/03/24 06:17:07;;;;;;;26.00;4.03;;;10.30;99.90;;;;;;4953302;28;37336;-77
2023/03/24 06:19:33;;;;;;;21.70;4.37;;;10.30;99.90;;;;;;4959589;28;37119;-76
2023/03/24 06:22:01;;;;;;;20.93;4.33;;;10.20;99.90;;;;;;4962388;28;38161;-77
2023/03/24 06:24:28;;;;;;;20.50;3.30;;;10.30;99.90;;;;;;4978789;28;48994;-77
2023/03/24 06:27:02;;;;;;;26.87;4.93;;;10.30;99.90;;;;;;4981173;28;37674;-76
2023/03/24 06:29:29;;;;;;;28.37;4.17;;;10.40;99.90;;;;;;4978911;28;49256;-77
2023/03/24 06:31:56;;;;;;;22.20;3.80;;;10.40;99.90;;;;;;4961743;28;39463;-76
2023/03/24 06:34:23;;;;;;;18.47;3.67;;;10.50;99.90;;;;;;4981290;28;39848;-78
2023/03/24 06:36:50;;;;;;;17.57;3.30;;;10.50;99.90;;;;;;4982537;28;38004;-77
2023/03/24 06:39:17;;;;;;;25.80;4.50;;;10.50;99.90;;;;;;4979853;28;36984;-78
2023/03/24 06:41:43;;;;;;;26.03;3.80;;;10.60;99.90;;;;;;4964255;28;38740;-78
2023/03/24 06:44:09;;;;;;;18.90;3.83;;;10.60;99.90;;;;;;4968357;28;37287;-77
2023/03/24 06:46:35;;;;;;;19.37;4.07;;;10.60;99.90;;;;;;4985840;28;37883;-78
2023/03/24 06:49:02;;;;;;;21.23;3.67;;;10.70;99.90;;;;;;4971899;28;38215;-76
2023/03/24 06:51:28;;;;;;;22.37;2.90;;;10.70;99.90;;;;;;4960286;28;46960;-77
2023/03/24 06:53:54;;;;;;;19.20;3.37;;;10.70;99.90;;;;;;4964146;28;39480;-78
2023/03/24 06:56:21;;;;;;;22.20;3.47;;;10.80;99.90;;;;;;4965225;28;36826;-77
2023/03/24 06:58:48;;;;;;;17.73;3.03;;;10.80;99.90;;;;;;4962220;28;39729;-78
2023/03/24 07:01:14;;;;;;;23.95;3.30;;;10.90;99.90;;;;;;4967289;28;37842;-78
2023/03/24 07:03:41;;;;;;;18.30;3.80;;;10.80;99.90;;;;;;4964385;28;39203;-77
2023/03/24 07:06:08;;;;;;;20.87;4.20;;;10.90;99.90;;;;;;4962911;28;38094;-76
2023/03/24 07:08:35;;;;;;;19.50;3.53;;;10.90;99.90;;;;;;4951266;28;35520;-78
2023/03/24 07:11:03;;;;;;;18.63;4.10;;;10.90;99.90;;;;;;4960439;28;39045;-77
2023/03/24 07:13:29;;;;;;;20.87;3.63;;;10.90;99.90;;;;;;4962632;28;47400;-77
2023/03/24 07:15:55;;;;;;;13.32;3.25;;;10.90;99.90;;;;;;4965605;28;38834;-76
2023/03/24 07:18:21;;;;;;;19.23;3.63;;;11.00;99.90;;;;;;4985813;28;37554;-76
2023/03/24 07:20:47;;;;;;;18.15;2.90;;;11.00;99.90;;;;;;4962958;28;40004;-79
2023/03/24 07:23:13;;;;;;;17.93;3.93;;;11.00;99.90;;;;;;4959140;28;38650;-77
2023/03/24 07:25:40;;;;;;;16.50;3.25;;;11.00;99.90;;;;;;4960490;28;37239;-76
2023/03/24 07:28:07;;;;;;;23.23;4.30;;;11.00;99.90;;;;;;4960692;28;37255;-78
2023/03/24 07:30:36;;;;;;;27.98;4.00;;;11.00;99.90;;;;;;4967716;28;38919;-77
2023/03/24 07:33:04;;;;;;;19.15;3.50;;;11.00;99.90;;;;;;4972261;28;39196;-77
2023/03/24 07:35:30;;;;;;;24.35;3.47;;;11.00;99.90;;;;;;4966945;28;38063;-77
2023/03/24 07:38:00;;;;;;;16.23;3.30;;;11.00;99.90;;;;;;4969980;28;36865;-77
2023/03/24 07:40:27;;;;;;;13.90;3.13;;;11.10;99.90;;;;;;4981233;28;38122;-77
2023/03/24 07:42:53;;;;;;;20.05;3.20;;;11.10;99.90;;;;;;4959294;28;37404;-77
2023/03/24 07:45:19;;;;;;;24.30;3.83;;;11.10;99.90;;;;;;4961131;28;37033;-77
2023/03/24 07:47:49;;;;;;;21.37;4.53;;;11.20;99.90;;;;;;4968550;28;37406;-77
2023/03/24 07:50:15;;;;;;;17.42;3.88;;;11.20;99.90;;;;;;4962949;28;38899;-77
2023/03/24 07:52:46;;;;;;;15.77;3.50;;;11.30;99.90;;;;;;4970387;28;37061;-78
2023/03/24 07:55:12;;;;;;;22.73;3.70;;;11.40;99.90;;;;;;4968381;28;36815;-76
2023/03/24 07:57:49;;;;;;;22.67;4.18;;;11.50;99.90;;;;;;4974457;28;38215;-76
2023/03/24 08:00:18;;;;;;;21.17;3.90;;;11.50;99.90;;;;;;4961039;28;37895;-76
2023/03/24 08:02:48;;;;;;;20.98;3.55;;;11.60;99.90;;;;;;4953599;28;47318;-76
2023/03/24 08:05:15;;;;;;;22.13;3.72;;;11.60;99.90;;;;;;4982176;28;38397;-79
2023/03/24 08:07:43;;;;;;;24.40;4.30;;;11.80;99.90;;;;;;4978483;28;37893;-75
2023/03/24 08:10:13;;;;;;;14.18;2.92;;;12.10;99.90;;;;;;4968758;28;37604;-78
2023/03/24 08:12:40;;;;;;;15.30;3.45;;;12.40;99.90;;;;;;4979321;28;38624;-77
2023/03/24 08:15:08;;;;;;;15.05;2.63;;;12.40;99.90;;;;;;4974755;28;37097;-77
2023/03/24 08:17:35;;;;;;;19.25;3.20;;;12.50;99.90;;;;;;4975804;28;35382;-77
2023/03/24 08:20:07;;;;;;;20.38;3.45;;;12.40;99.90;;;;;;4969657;28;37738;-77
2023/03/24 08:22:33;;;;;;;17.93;3.20;;;12.20;99.90;;;;;;4980750;28;47493;-77
2023/03/24 08:24:59;;;;;;;16.80;2.78;;;12.20;99.90;;;;;;4982492;28;38119;-75
2023/03/24 08:27:25;;;;;;;15.35;3.47;;;12.40;99.90;;;;;;4978065;28;37181;-78
2023/03/24 08:29:51;;;;;;;15.20;3.15;;;12.70;99.90;;;;;;4975574;28;40558;-77
2023/03/24 08:32:17;;;;;;;13.02;3.08;;;12.60;99.90;;;;;;4983923;28;38762;-77
2023/03/24 08:34:43;;;;;;;19.30;3.60;;;12.50;99.90;;;;;;4974110;28;37263;-77
2023/03/24 08:37:10;;;;;;;14.88;3.47;;;12.50;99.90;;;;;;4970086;28;35979;-76
2023/03/24 08:39:36;;;;;;;20.85;3.55;;;12.50;99.90;;;;;;4974525;28;37817;-76
2023/03/24 08:42:03;;;;;;;16.35;3.35;;;12.50;99.90;;;;;;4979234;28;38957;-76
2023/03/24 08:44:29;;;;;;;16.02;2.95;;;12.50;99.90;;;;;;4977233;28;38425;-77
2023/03/24 08:46:55;;;;;;;11.02;3.13;;;12.40;99.90;;;;;;4973428;28;37348;-77
2023/03/24 08:49:21;;;;;;;21.65;3.35;;;12.60;99.90;;;;;;4966745;28;38811;-80
2023/03/24 08:51:47;;;;;;;22.35;3.50;;;12.60;99.90;;;;;;4964318;28;40149;-77
2023/03/24 08:54:13;;;;;;;20.23;3.85;;;12.40;99.90;;;;;;4962444;28;37867;-79
2023/03/24 08:56:40;;;;;;;18.10;2.95;;;12.20;99.90;;;;;;4965742;28;36044;-77
2023/03/24 08:59:06;;;;;;;19.42;3.47;;;12.40;99.90;;;;;;4968495;28;38937;-77
2023/03/24 09:01:35;;;;;;;18.70;3.05;;;12.60;99.90;;;;;;4980071;28;38342;-77
2023/03/24 09:04:02;;;;;;;21.60;3.20;;;12.60;99.90;;;;;;4940740;28;37043;-77
2023/03/24 09:06:28;;;;;;;17.60;3.40;;;12.70;99.90;;;;;;4937214;28;37292;-77
2023/03/24 09:08:55;;;;;;;17.77;3.35;;;12.80;99.90;;;;;;4941678;28;37351;-80
2023/03/24 09:11:21;;;;;;;18.60;4.13;;;13.00;99.90;;;;;;4946319;28;37111;-78
2023/03/24 09:13:48;;;;;;;15.55;3.22;;;13.10;99.90;;;;;;4949609;28;38329;-79
2023/03/24 09:16:15;;;;;;;17.30;2.97;;;13.20;99.90;;;;;;4933970;28;36141;-80
2023/03/24 09:18:42;;;;;;;20.13;3.70;;;13.10;99.90;;;;;;4947144;28;39096;-79
2023/03/24 09:21:08;;;;;;;15.35;3.47;;;12.90;99.90;;;;;;4959857;28;37183;-78
2023/03/24 09:23:35;;;;;;;17.63;3.88;;;12.90;99.90;;;;;;4967019;28;38519;-78
2023/03/24 09:26:02;;;;;;;15.60;2.70;;;12.90;99.90;;;;;;4966222;28;37222;-78
2023/03/24 09:28:28;;;;;;;19.33;3.58;;;13.10;99.90;;;;;;4956106;28;40555;-79
2023/03/24 09:31:00;;;;;;;22.48;3.60;;;13.30;99.90;;;;;;4961442;28;37531;-78
2023/03/24 09:33:30;;;;;;;20.33;3.27;;;13.50;99.90;;;;;;4970508;28;38334;-81
2023/03/24 09:35:58;;;;;;;17.45;3.28;;;13.70;99.90;;;;;;4963857;28;36539;-78
2023/03/24 09:38:25;;;;;;;17.35;3.90;;;13.70;99.90;;;;;;4969072;28;39423;-79
2023/03/24 09:41:02;;;;;;;13.27;2.58;;;13.90;99.90;;;;;;4966163;28;37356;-79
2023/03/24 09:43:47;;;;;;;18.77;3.75;;;13.90;99.90;;;;;;4958166;28;48739;-76
2023/03/24 09:46:45;;;;;;;20.20;3.33;;;13.80;99.90;;;;;;4966542;28;38207;-79
2023/03/24 09:49:15;;;;;;;15.00;3.08;;;14.20;99.90;;;;;;4961202;28;37930;-78
2023/03/24 09:51:45;;;;;;;16.15;3.30;;;14.00;99.90;;;;;;4964679;28;38980;-78
2023/03/24 09:54:21;;;;;;;15.52;3.50;;;13.90;99.90;;;;;;4963049;28;37884;-82
2023/03/24 09:56:48;;;;;;;16.38;3.13;;;14.00;99.90;;;;;;4959629;28;36020;-79
2023/03/24 09:59:28;;;;;;;14.55;3.72;;;14.20;99.90;;;;;;4956730;28;39599;-79
2023/03/24 10:01:55;;;;;;;19.95;3.58;;;14.00;99.90;;;;;;4963834;28;37080;-78
2023/03/24 10:04:25;;;;;;;17.40;3.50;;;13.80;99.90;;;;;;4984654;28;38052;-79
2023/03/24 10:07:01;;;;;;;20.42;3.05;;;14.00;99.90;;;;;;4969675;28;36113;-78
2023/03/24 10:09:33;;;;;;;16.70;3.42;;;14.00;99.90;;;;;;4967742;28;40138;-77
2023/03/24 10:12:06;;;;;;;;;;;13.70;99.90;;;;;;4966167;28;37529;-78
2023/03/24 10:14:42;;;;;;;12.85;3.30;;;13.60;99.90;;;;;;4981203;28;48490;-79
2023/03/24 10:17:23;;;;;;;18.23;4.20;;;13.70;99.90;;;;;;4982348;28;37984;-78
2023/03/24 10:19:59;;;;;;;12.75;2.70;;;13.50;99.90;;;;;;4956276;28;37785;-81
2023/03/24 10:22:47;;;;;;;13.88;3.22;;;13.50;99.90;;;;;;4985208;28;38166;-78
2023/03/24 10:25:37;;;;;;;13.68;2.85;;;13.50;99.90;;;;;;4978922;28;38775;-78
2023/03/24 10:28:37;;;;;;;11.57;2.75;;;13.70;99.90;;;;;;4968622;28;36241;-80
2023/03/24 10:31:09;;;;;;;15.45;2.63;;;13.90;99.90;;;;;;4963991;28;39168;-79
2023/03/24 10:33:41;;;;;;;14.45;3.17;;;14.30;99.90;;;;;;4985563;28;39971;-80
2023/03/24 10:36:14;;;;;;;10.57;2.70;;;14.50;99.90;;;;;;4986896;28;39405;-79
2023/03/24 10:38:41;;;;;;;10.90;2.60;;;14.00;99.90;;;;;;4987189;28;37339;-81
2023/03/24 10:41:19;;;;;;;13.13;2.72;;;14.00;99.90;;;;;;4967958;28;37632;-79
2023/03/24 10:43:47;;;;;;;11.13;2.63;;;14.10;99.90;;;;;;4958751;28;38149;-79
2023/03/24 10:46:16;;;;;;;13.52;2.72;;;14.20;99.90;;;;;;4979650;28;38816;-80
2023/03/24 10:48:48;;;;;;;17.33;3.22;;;14.20;99.90;;;;;;4973922;28;36135;-80
2023/03/24 10:51:16;;;;;;;12.32;2.53;;;14.10;99.90;;;;;;4966601;28;38181;-79
2023/03/24 10:53:46;;;;;;;16.67;3.20;;;14.10;99.90;;;;;;4967256;28;37521;-80
2023/03/24 10:56:38;;;;;;;17.20;2.88;;;14.20;99.90;;;;;;4983430;28;38061;-79
2023/03/24 10:59:26;;;;;;;18.00;3.35;;;14.50;99.90;;;;;;4960287;28;36470;-78
2023/03/24 11:01:59;;;;;;;13.48;2.65;;;14.60;99.90;;;;;;4982628;28;38363;-80
2023/03/24 11:04:28;;;;;;;12.68;2.38;;;14.50;99.90;;;;;;4983632;28;38727;-82
2023/03/24 11:07:12;;;;;;;10.48;1.98;;;14.80;99.90;;;;;;4982576;28;39229;-78
2023/03/24 11:09:44;;;;;;;13.65;2.40;;;15.40;99.90;;;;;;4965838;28;47761;-81
2023/03/24 11:12:21;;;;;;;11.63;2.43;;;15.60;99.90;;;;;;4986759;28;38542;-83
2023/03/24 11:14:47;;;;;;;15.43;2.28;;;15.80;99.90;;;;;;4964062;28;37929;-79
2023/03/24 11:17:15;;;;;;;13.52;1.90;;;15.80;99.90;;;;;;4966018;28;37137;-82
2023/03/24 11:19:56;;;;;;;10.55;2.08;;;15.70;99.90;;;;;;4959261;28;35788;-81
2023/03/24 11:22:28;;;;;;;11.48;2.30;;;15.60;99.90;;;;;;4963736;28;38124;-79
2023/03/24 11:24:56;;;;;;;9.27;1.70;;;15.40;99.90;;;;;;4960563;28;38526;-83
2023/03/24 11:27:22;;;;;;;14.75;2.00;;;15.60;99.90;;;;;;4979809;28;38843;-82
2023/03/24 11:29:55;;;;;;;10.30;2.10;;;15.40;99.90;;;;;;4971916;28;36984;-82
2023/03/24 11:32:26;;;;;;;9.73;2.35;;;15.10;99.90;;;;;;4961992;28;37940;-84
2023/03/24 11:35:06;;;;;;;7.80;2.13;;;14.70;99.90;;;;;;4966586;28;37262;-83
2023/03/24 11:37:35;;;;;;;9.00;1.35;;;14.60;99.90;;;;;;4980160;28;47387;-86
2023/03/24 11:40:15;;;;;;;9.98;1.77;;;14.50;99.90;;;;;;4959501;28;36087;-83
2023/03/24 11:42:44;;;;;;;9.50;2.15;;;14.60;99.90;;;;;;4943612;28;47300;-77
2023/03/24 11:45:42;;;;;;;9.88;2.25;;;14.40;99.90;;;;;;4959117;28;37565;-81
2023/03/24 11:48:51;;;;;;;14.45;2.35;;;14.30;99.90;;;;;;4959804;28;38189;-78
2023/03/24 11:51:33;;;;;;;11.75;2.30;;;14.40;99.90;;;;;;4953280;28;36717;-81
2023/03/24 11:54:03;;;;;;;17.92;2.28;;;14.50;99.90;;;;;;4961617;28;37539;-84
2023/03/24 11:56:45;;;;;;;16.27;2.20;;;14.90;99.90;;;;;;4955634;28;47550;-84
2023/03/24 11:59:11;;;;;;;16.63;2.92;;;15.00;99.90;;;;;;4965342;28;37209;-80
2023/03/24 12:01:45;;;;;;;15.75;2.35;;;14.70;99.90;;;;;;4954533;28;36451;-78
2023/03/24 12:04:48;;;;;;;10.43;2.28;;;14.80;99.90;;;;;;4962968;28;40077;-79
2023/03/24 12:07:39;;;;;;;15.23;2.28;;;14.60;99.90;;;;;;4962919;28;37342;-80
2023/03/24 12:10:24;;;;;;;13.10;2.20;;;14.70;99.90;;;;;;4962918;28;38729;-79
2023/03/24 12:13:02;;;;;;;18.33;2.58;;;15.00;99.90;;;;;;4958235;28;36419;-82
2023/03/24 12:15:39;;;;;;;16.20;3.65;;;15.10;99.90;;;;;;4975967;28;48309;-80
2023/03/24 12:18:14;;;;;;;12.75;2.67;;;15.00;99.90;;;;;;4955643;28;38935;-78
2023/03/24 12:20:55;;;;;;;14.90;2.50;;;14.70;99.90;;;;;;4957942;28;37902;-80
2023/03/24 12:23:41;;;;;;;11.05;2.70;;;15.10;99.90;;;;;;4960113;28;36545;-82
2023/03/24 12:26:16;;;;;;;15.25;3.05;;;15.60;99.90;;;;;;4963916;28;38658;-78
2023/03/24 12:29:02;;;;;;;14.13;3.20;;;15.40;99.90;;;;;;4965021;28;37262;-77
2023/03/24 12:31:51;;;;;;;10.18;2.22;;;14.80;99.90;;;;;;4958264;28;47195;-78
2023/03/24 12:34:29;;;;;;;11.40;3.05;;;15.10;99.90;;;;;;4926242;28;37087;-77
2023/03/24 12:37:32;;;;;;;16.83;3.08;;;15.00;99.90;;;;;;4964200;28;38912;-77
2023/03/24 12:40:11;;;;;;;14.27;3.20;;;14.70;99.90;;;;;;4966422;28;49090;-76
2023/03/24 12:42:45;;;;;;;14.75;2.60;;;14.70;99.90;;;;;;4966342;28;47252;-76
2023/03/24 12:45:32;;;;;;;12.88;2.25;;;14.80;99.90;;;;;;4966701;28;36482;-78
2023/03/24 12:48:19;;;;;;;14.95;3.05;;;14.60;99.90;;;;;;4968023;28;37742;-77
2023/03/24 12:51:15;;;;;;;18.15;2.70;;;14.70;99.90;;;;;;4967568;28;47127;-76
2023/03/24 12:53:48;;;;;;;11.18;2.10;;;14.50;99.90;;;;;;4970393;28;49927;-77
2023/03/24 12:56:19;;;;;;;13.70;3.17;;;14.40;99.90;;;;;;4965716;28;38192;-77
2023/03/24 12:58:56;;;;;;;17.98;2.55;;;14.20;99.90;;;;;;4967747;28;40030;-78
2023/03/24 13:01:48;;;;;;;11.82;2.58;;;14.00;99.90;;;;;;4966767;28;37188;-78
2023/03/24 13:04:34;;;;;;;18.95;3.65;;;13.90;99.90;;;;;;4974347;28;36942;-76
2023/03/24 13:07:13;;;;;;;21.38;2.97;;;13.60;99.90;;;;;;4969594;28;36358;-76
2023/03/24 13:10:05;;;;;;;10.23;2.50;;;13.20;99.90;;;;;;4968005;28;47113;-76